»·PEaware :: UAL372 KABQ-KTUS

UAL372 :: KABQ-KTUS

FLIGHT INFORMATION

Flight Status: Arrived
Operator:
United Airlines
More flights by this operator :: More flights under this callsign
Pilot: Pratham R. (19019)
Aircraft: BOEING 737-800
(B738)
More flights by this aircraft type
Origin: KABQ Albuquerque Intl Sunport
United States
Destination: KTUS Tucson Intl
United States
More flights between these airports :: More routes between these airports
Route: BOSQE3 ONM J104 SSO ZONNA1
File this flight plan on PilotEdge
Remarks: RMK / SIMBRIEF
Altitude:
(Current/Filed)
36,000ft
Speed:
(Current/Filed)
461kts
Departed: 26-Mar-20 07:32 PM
Arrived: 26-Mar-20 08:35 PM
Distance/Time
Traveled:
278nm/1:03
Distance/Time
To Go:
Arrived

Flight Plot

Page will automatically refresh every two minutes.

Flight plan parsing failed; only flown route is shown


Map Options




Map Legend


Flown Route
Filed Route
Departure Airport
Arrival Airport
Navaid (VOR, NDB)
Fix

Horizontal Profiles

Position Reports

Time Latitude Longitude Heading Altitude Ground
Speed
26-Mar-20 18:57 35.047898 -106.615225 181 5316ft 0kts
26-Mar-20 18:58 35.047898 -106.615225 181 5316ft 0kts
26-Mar-20 18:59 35.047898 -106.615225 181 5316ft 0kts
26-Mar-20 19:00 35.047898 -106.615225 181 5316ft 0kts
26-Mar-20 19:01 35.047898 -106.615225 181 5316ft 0kts
26-Mar-20 19:02 35.047898 -106.615225 181 5316ft 0kts
26-Mar-20 19:03 35.047898 -106.615225 181 5316ft 0kts
26-Mar-20 19:04 35.047898 -106.615225 181 5316ft 0kts
26-Mar-20 19:05 35.047898 -106.615225 181 5316ft 0kts
26-Mar-20 19:06 35.047898 -106.615225 181 5316ft 0kts
26-Mar-20 19:07 35.047898 -106.615225 181 5316ft 0kts
26-Mar-20 19:08 35.047898 -106.615225 181 5316ft 0kts
26-Mar-20 19:09 35.047898 -106.615225 181 5316ft 0kts
26-Mar-20 19:10 35.047898 -106.615225 181 5316ft 0kts
26-Mar-20 19:11 35.047898 -106.615225 181 5316ft 0kts
26-Mar-20 19:12 35.047898 -106.615225 181 5316ft 0kts
26-Mar-20 19:13 35.047898 -106.615225 181 5316ft 0kts
26-Mar-20 19:14 35.047898 -106.615225 181 5316ft 0kts
26-Mar-20 19:15 35.047898 -106.615225 181 5316ft 0kts
26-Mar-20 19:17 35.047898 -106.615225 181 5316ft 0kts
26-Mar-20 19:18 35.047898 -106.615225 181 5316ft 0kts
26-Mar-20 19:19 35.047898 -106.615225 181 5316ft 0kts
26-Mar-20 19:20 35.048168 -106.615216 181 5316ft 0kts
26-Mar-20 19:21 35.048380 -106.615518 89 5315ft 0kts
26-Mar-20 19:22 35.048380 -106.615517 88 5315ft 0kts
26-Mar-20 19:23 35.048380 -106.615517 88 5315ft 0kts
26-Mar-20 19:24 35.048380 -106.615517 88 5315ft 0kts
26-Mar-20 19:25 35.048380 -106.615517 88 5315ft 0kts
26-Mar-20 19:26 35.048349 -106.613924 93 5318ft 10kts
26-Mar-20 19:27 35.047114 -106.613099 182 5321ft 10kts
26-Mar-20 19:28 35.044639 -106.613762 181 5319ft 10kts
26-Mar-20 19:29 35.042465 -106.613108 94 5319ft 9kts
26-Mar-20 19:30 35.042420 -106.609213 90 5322ft 12kts
26-Mar-20 19:31 35.041407 -106.607468 224 5322ft 7kts
26-Mar-20 19:32 35.037611 -106.612051 224 5319ft 109kts
26-Mar-20 19:33 35.004482 -106.650217 220 8275ft 179kts
26-Mar-20 19:34 34.956176 -106.701551 222 9033ft 260kts
26-Mar-20 19:34 34.912153 -106.751585 219 10015ft 265kts
26-Mar-20 19:36 34.824014 -106.795846 189 13713ft 330kts
26-Mar-20 19:37 34.730514 -106.788345 183 17627ft 346kts
26-Mar-20 19:37 34.649250 -106.781716 184 20524ft 356kts
26-Mar-20 19:38 34.559452 -106.809850 224 23627ft 336kts
26-Mar-20 19:40 34.475572 -106.896617 222 26822ft 345kts
26-Mar-20 19:40 34.413670 -106.958492 221 28828ft 349kts
26-Mar-20 19:41 34.340166 -107.031923 221 31649ft 337kts
26-Mar-20 19:42 34.269645 -107.102394 221 34282ft 324kts
26-Mar-20 19:43 34.200856 -107.171090 221 35924ft 323kts
26-Mar-20 19:44 34.131548 -107.240206 221 35943ft 321kts
26-Mar-20 19:45 34.062743 -107.308761 221 35942ft 321kts
26-Mar-20 19:46 33.993657 -107.377556 221 35938ft 322kts
26-Mar-20 19:47 33.924765 -107.446109 221 35935ft 322kts
26-Mar-20 19:48 33.855637 -107.514814 221 35952ft 322kts
26-Mar-20 19:49 33.788490 -107.581523 221 35975ft 300kts
26-Mar-20 19:50 33.723261 -107.646283 220 35976ft 305kts
26-Mar-20 19:51 33.657609 -107.711132 220 35990ft 305kts
26-Mar-20 19:52 33.592481 -107.775574 220 35986ft 304kts
26-Mar-20 19:53 33.527028 -107.840426 220 35986ft 306kts
26-Mar-20 19:54 33.461270 -107.905473 220 35980ft 306kts
26-Mar-20 19:55 33.395715 -107.970295 220 35988ft 305kts
26-Mar-20 19:56 33.330365 -108.034897 220 36010ft 305kts
26-Mar-20 19:57 33.269079 -108.104818 224 36030ft 306kts
26-Mar-20 19:58 33.208756 -108.176106 224 36025ft 304kts
26-Mar-20 19:59 33.148327 -108.247091 224 36024ft 305kts
26-Mar-20 20:00 33.088711 -108.317034 224 36022ft 310kts
26-Mar-20 20:01 33.024949 -108.391668 223 36022ft 324kts
26-Mar-20 20:02 32.959847 -108.467755 223 36020ft 333kts
26-Mar-20 20:03 32.893459 -108.545158 222 36029ft 334kts
26-Mar-20 20:04 32.827077 -108.622373 223 36035ft 334kts
26-Mar-20 20:05 32.761515 -108.698337 222 36046ft 335kts
26-Mar-20 20:06 32.694713 -108.775603 222 36019ft 336kts
26-Mar-20 20:07 32.627884 -108.852823 222 35976ft 335kts
26-Mar-20 20:08 32.561016 -108.929643 222 35932ft 334kts
26-Mar-20 20:09 32.494175 -109.006147 222 35909ft 331kts
26-Mar-20 20:10 32.428536 -109.081480 223 34403ft 325kts
26-Mar-20 20:11 32.365423 -109.153727 223 31892ft 308kts
26-Mar-20 20:12 32.305450 -109.223245 227 29290ft 309kts
26-Mar-20 20:13 32.266350 -109.318954 251 27940ft 338kts
26-Mar-20 20:14 32.252671 -109.431891 254 27937ft 346kts
26-Mar-20 20:15 32.241138 -109.544826 255 27927ft 345kts
26-Mar-20 20:16 32.229969 -109.654925 255 25746ft 335kts
26-Mar-20 20:17 32.218943 -109.760598 255 23089ft 314kts
26-Mar-20 20:18 32.208278 -109.861890 256 21007ft 316kts
26-Mar-20 20:19 32.197378 -109.966439 256 20981ft 320kts
26-Mar-20 20:20 32.186629 -110.071147 256 20990ft 321kts
26-Mar-20 20:21 32.176084 -110.173737 256 19685ft 309kts
26-Mar-20 20:22 32.165511 -110.274126 257 17313ft 307kts
26-Mar-20 20:23 32.153186 -110.370016 242 14781ft 268kts
26-Mar-20 20:24 32.108755 -110.436549 229 12465ft 256kts
26-Mar-20 20:25 32.061678 -110.499270 230 10507ft 256kts
26-Mar-20 20:26 32.013665 -110.559432 230 9504ft 247kts
26-Mar-20 20:27 31.981934 -110.627596 268 7756ft 246kts
26-Mar-20 20:28 31.982478 -110.702435 285 6736ft 216kts
26-Mar-20 20:29 31.998437 -110.769667 287 5965ft 201kts
26-Mar-20 20:30 32.017439 -110.822128 303 5443ft 164kts
26-Mar-20 20:31 32.048746 -110.860416 318 4251ft 164kts
26-Mar-20 20:32 32.077852 -110.894729 314 3352ft 136kts
26-Mar-20 20:33 32.105104 -110.926434 315 2652ft 131kts
26-Mar-20 20:34 32.115983 -110.938730 349 2610ft 12kts
26-Mar-20 20:35 32.117778 -110.937855 26 2608ft 5kts
26-Mar-20 20:36 32.119492 -110.938780 33 2603ft 4kts
26-Mar-20 20:37 32.119615 -110.937959 88 2604ft 0kts
26-Mar-20 20:38 32.119616 -110.937878 88 2604ft 0kts
26-Mar-20 20:39 32.119616 -110.937878 88 2604ft 0kts
26-Mar-20 20:40 32.119616 -110.937878 88 2604ft 0kts
26-Mar-20 20:41 32.119616 -110.937878 88 2604ft 0kts
26-Mar-20 20:42 32.119616 -110.937878 88 2604ft 0kts
26-Mar-20 20:43 32.119616 -110.937878 88 2604ft 0kts

Navigation Log

Ident Type
Flight plan parsing failed, navigation log unavailable